createdAt,value
2023-07-03T00:02:22.551Z,17.51
2023-07-03T00:04:51.633Z,17.41
2023-07-03T00:07:20.704Z,17.50
2023-07-03T00:09:51.195Z,17.40
2023-07-03T00:12:19.918Z,17.30
2023-07-03T00:14:49.503Z,17.17
2023-07-03T00:17:17.928Z,17.09
2023-07-03T00:19:46.305Z,17.10
2023-07-03T00:22:14.645Z,17.06
2023-07-03T00:24:44.522Z,17.07
2023-07-03T00:27:14.352Z,16.97
2023-07-03T00:29:42.664Z,17.07
2023-07-03T00:32:11.351Z,16.96
2023-07-03T00:34:39.760Z,16.97
2023-07-03T00:37:08.481Z,16.98
2023-07-03T00:39:36.964Z,16.92
2023-07-03T00:42:08.456Z,16.87
2023-07-03T00:44:38.692Z,16.89
2023-07-03T00:47:07.986Z,16.87
2023-07-03T00:49:36.439Z,16.87
2023-07-03T00:52:05.882Z,16.88
2023-07-03T00:54:34.454Z,16.83
2023-07-03T00:57:02.648Z,16.89
2023-07-03T00:59:31.065Z,16.87
2023-07-03T01:02:14.409Z,16.92
2023-07-03T01:04:51.690Z,16.84
2023-07-03T01:07:25.143Z,16.88
2023-07-03T01:09:58.058Z,16.89
2023-07-03T01:12:31.598Z,17.01
2023-07-03T01:15:04.125Z,17.16
2023-07-03T01:17:35.903Z,17.15
2023-07-03T01:20:06.285Z,17.09
2023-07-03T01:22:43.534Z,16.97
2023-07-03T01:25:18.295Z,16.91
2023-07-03T01:27:48.616Z,16.91
2023-07-03T01:30:20.846Z,16.89
2023-07-03T01:32:52.462Z,16.97
2023-07-03T01:35:22.430Z,17.16
2023-07-03T01:37:53.632Z,17.21
2023-07-03T01:40:28.564Z,17.13
2023-07-03T01:42:58.858Z,17.07
2023-07-03T01:45:28.223Z,17.16
2023-07-03T01:47:56.878Z,17.28
2023-07-03T01:50:30.419Z,17.22
2023-07-03T01:53:05.291Z,17.13
2023-07-03T01:55:40.648Z,17.18
2023-07-03T01:58:19.194Z,17.10
2023-07-03T02:00:57.169Z,17.13
2023-07-03T02:03:37.499Z,17.04
2023-07-03T02:06:11.197Z,16.98
2023-07-03T02:08:41.152Z,17.00
2023-07-03T02:11:17.877Z,16.99
2023-07-03T02:13:46.432Z,17.01
2023-07-03T02:16:17.236Z,16.91
2023-07-03T02:18:48.057Z,16.89
2023-07-03T02:21:16.434Z,16.81
2023-07-03T02:23:45.359Z,16.98
2023-07-03T02:26:15.561Z,17.18
2023-07-03T02:28:45.620Z,17.26
2023-07-03T02:31:13.961Z,17.24
2023-07-03T02:33:42.873Z,17.22
2023-07-03T02:36:11.214Z,17.12
2023-07-03T02:38:39.552Z,17.12
2023-07-03T02:41:08.092Z,17.22
2023-07-03T02:43:37.799Z,17.33
2023-07-03T02:46:10.043Z,17.31
2023-07-03T02:48:38.826Z,17.24
2023-07-03T02:51:07.125Z,17.23
2023-07-03T02:53:35.608Z,17.26
2023-07-03T02:56:03.918Z,17.18
2023-07-03T02:58:32.741Z,17.09
2023-07-03T03:01:02.386Z,17.07
2023-07-03T03:03:33.176Z,17.07
2023-07-03T03:06:01.494Z,17.07
2023-07-03T03:08:29.942Z,17.07
2023-07-03T03:10:58.545Z,16.85
2023-07-03T03:13:27.231Z,16.72
2023-07-03T03:15:55.940Z,16.65
2023-07-03T03:18:24.310Z,16.55
2023-07-03T03:20:54.382Z,16.56
2023-07-03T03:23:22.623Z,16.72
2023-07-03T03:25:51.349Z,16.59
2023-07-03T03:28:19.898Z,16.39
2023-07-03T03:30:51.144Z,16.21
2023-07-03T03:33:19.478Z,16.08
2023-07-03T03:35:51.792Z,16.03
2023-07-03T03:38:21.924Z,16.21
2023-07-03T03:40:56.852Z,16.30
2023-07-03T03:43:26.713Z,16.06
2023-07-03T03:45:57.576Z,15.80
2023-07-03T03:48:27.053Z,15.62
2023-07-03T03:50:57.257Z,15.44
2023-07-03T03:53:27.109Z,15.27
2023-07-03T03:55:59.039Z,15.14
2023-07-03T03:58:28.163Z,15.08
2023-07-03T04:00:56.692Z,14.99
2023-07-03T04:03:25.318Z,15.00
2023-07-03T04:05:58.603Z,15.02
2023-07-03T04:08:28.640Z,15.05
2023-07-03T04:10:57.780Z,15.07
2023-07-03T04:13:26.458Z,15.06
2023-07-03T04:16:04.790Z,15.08
2023-07-03T04:18:34.388Z,15.09
2023-07-03T04:21:05.703Z,15.10
2023-07-03T04:23:35.705Z,15.10
2023-07-03T04:26:04.452Z,15.11
2023-07-03T04:28:32.950Z,15.13
2023-07-03T04:31:03.505Z,15.09
2023-07-03T04:33:31.884Z,15.01
2023-07-03T04:36:02.910Z,14.99
2023-07-03T04:38:31.237Z,14.93
2023-07-03T04:41:02.255Z,14.86
2023-07-03T04:43:32.319Z,14.77
2023-07-03T04:46:04.850Z,14.68
2023-07-03T04:48:36.186Z,14.56
2023-07-03T04:51:05.134Z,14.44
2023-07-03T04:53:41.681Z,14.35
2023-07-03T04:56:12.808Z,14.21
2023-07-03T04:58:44.666Z,14.16
2023-07-03T05:01:18.041Z,14.09
2023-07-03T05:03:48.382Z,14.14
2023-07-03T05:06:16.775Z,14.17
2023-07-03T05:08:45.133Z,14.19
2023-07-03T05:11:15.134Z,14.23
2023-07-03T05:13:45.691Z,14.21
2023-07-03T05:16:18.948Z,14.18
2023-07-03T05:18:47.235Z,14.13
2023-07-03T05:21:17.046Z,14.07
2023-07-03T05:23:45.955Z,14.09
2023-07-03T05:26:17.238Z,14.10
2023-07-03T05:28:49.600Z,14.11
2023-07-03T05:31:22.384Z,14.17
2023-07-03T05:33:50.835Z,14.23
2023-07-03T05:36:19.803Z,14.24
2023-07-03T05:38:58.827Z,14.30
2023-07-03T05:41:29.141Z,14.32
2023-07-03T05:43:59.041Z,14.34
2023-07-03T05:46:29.227Z,14.37
2023-07-03T05:48:58.108Z,14.40
2023-07-03T05:51:26.536Z,14.43
2023-07-03T05:53:56.636Z,14.47
2023-07-03T05:56:29.823Z,14.56
2023-07-03T05:58:59.653Z,14.59
2023-07-03T06:01:30.013Z,14.63
2023-07-03T06:04:02.484Z,14.59
2023-07-03T06:06:30.738Z,14.57
2023-07-03T06:08:59.168Z,14.59
2023-07-03T06:11:27.907Z,14.61
2023-07-03T06:14:06.978Z,14.65
2023-07-03T06:16:38.300Z,14.73
2023-07-03T06:19:07.840Z,14.80
2023-07-03T06:21:48.257Z,14.81
2023-07-03T06:24:18.624Z,14.77
2023-07-03T06:26:47.373Z,14.75
2023-07-03T06:29:17.674Z,14.81
2023-07-03T06:31:49.785Z,14.88
2023-07-03T06:34:21.069Z,15.01
2023-07-03T06:36:49.550Z,15.06
2023-07-03T06:39:19.476Z,15.15
2023-07-03T06:41:48.576Z,15.24
2023-07-03T06:44:22.653Z,15.24
2023-07-03T06:46:53.614Z,15.23
2023-07-03T06:49:23.969Z,15.37
2023-07-03T06:51:52.517Z,15.51
2023-07-03T06:54:24.436Z,15.68
2023-07-03T06:56:58.242Z,15.97
2023-07-03T06:59:26.737Z,16.18
2023-07-03T07:01:57.027Z,16.27
2023-07-03T07:04:29.660Z,16.47
2023-07-03T07:06:58.483Z,16.64
2023-07-03T07:09:27.349Z,16.72
2023-07-03T07:11:58.734Z,16.81
2023-07-03T07:14:27.226Z,16.82
2023-07-03T07:17:01.443Z,16.86
2023-07-03T07:19:30.172Z,16.94
2023-07-03T07:21:58.596Z,16.97
2023-07-03T07:24:29.489Z,17.10
2023-07-03T07:27:01.391Z,17.22
2023-07-03T07:29:31.591Z,17.26
2023-07-03T07:32:01.496Z,17.38
2023-07-03T07:34:30.103Z,17.41
2023-07-03T07:36:58.760Z,17.35
2023-07-03T07:39:28.850Z,17.07
2023-07-03T07:41:57.669Z,16.94
2023-07-03T07:44:29.418Z,16.77
2023-07-03T07:47:28.268Z,16.62
2023-07-03T07:49:55.392Z,16.59
2023-07-03T07:52:29.015Z,16.64
2023-07-03T07:54:59.964Z,16.71
2023-07-03T07:57:32.392Z,16.91
2023-07-03T08:00:00.801Z,17.01
2023-07-03T08:02:29.921Z,17.13
2023-07-03T08:05:00.198Z,17.21
2023-07-03T08:07:38.385Z,17.27
2023-07-03T08:10:07.452Z,17.22
2023-07-03T08:12:37.939Z,17.20
2023-07-03T08:15:09.396Z,17.18
2023-07-03T08:17:37.950Z,17.33
2023-07-03T08:20:14.939Z,17.60
2023-07-03T08:22:46.238Z,17.89
2023-07-03T08:25:14.684Z,18.10
2023-07-03T08:27:47.739Z,18.20
2023-07-03T08:30:17.431Z,18.26
2023-07-03T08:32:45.788Z,18.25
2023-07-03T08:37:49.874Z,17.98
2023-07-03T08:40:27.967Z,17.99
2023-07-03T08:42:59.589Z,18.03
2023-07-03T08:45:35.909Z,18.00
2023-07-03T08:48:10.699Z,17.92
2023-07-03T08:50:44.493Z,17.83
2023-07-03T08:53:18.301Z,17.68
2023-07-03T08:55:52.988Z,17.60
2023-07-03T08:58:22.166Z,17.54
2023-07-03T09:00:59.720Z,17.52
2023-07-03T09:03:44.044Z,17.51
2023-07-03T09:06:20.914Z,17.51
2023-07-03T09:09:01.618Z,17.54
2023-07-03T09:11:33.005Z,17.51
2023-07-03T09:14:04.905Z,17.51
2023-07-03T09:16:33.649Z,17.59
2023-07-03T09:19:08.351Z,17.56
2023-07-03T09:21:42.378Z,17.44
2023-07-03T09:24:20.951Z,17.37
2023-07-03T09:26:52.963Z,17.32
2023-07-03T09:29:23.121Z,17.38
2023-07-03T09:31:52.042Z,17.48
2023-07-03T09:34:25.150Z,17.65
2023-07-03T09:37:00.597Z,18.08
2023-07-03T09:39:29.243Z,18.56
2023-07-03T09:42:08.454Z,18.81
2023-07-03T09:44:44.166Z,19.12
2023-07-03T09:47:23.281Z,19.19
2023-07-03T09:49:52.066Z,19.16
2023-07-03T09:52:22.513Z,18.87
2023-07-03T09:54:51.335Z,18.49
2023-07-03T09:57:22.284Z,18.37
2023-07-03T09:59:53.290Z,18.38
2023-07-03T10:07:27.634Z,18.11
2023-07-03T10:12:34.969Z,17.71
2023-07-03T10:15:07.676Z,17.64
2023-07-03T10:17:43.880Z,17.37
2023-07-03T10:20:28.842Z,16.89
2023-07-03T10:23:01.154Z,16.59
2023-07-03T10:25:34.161Z,16.25
2023-07-03T10:28:09.213Z,15.97
2023-07-03T10:30:40.962Z,15.79
2023-07-03T10:33:15.471Z,15.67
2023-07-03T10:35:46.392Z,15.69
2023-07-03T10:38:26.795Z,15.85
2023-07-03T10:41:01.946Z,16.11
2023-07-03T10:43:36.593Z,16.37
2023-07-03T10:46:15.979Z,16.56
2023-07-03T10:48:45.782Z,16.73
2023-07-03T10:51:26.031Z,16.74
2023-07-03T10:54:02.420Z,16.84
2023-07-03T10:56:37.242Z,16.90
2023-07-03T10:59:13.814Z,16.85
2023-07-03T11:01:54.053Z,16.86
2023-07-03T11:04:25.661Z,16.86
2023-07-03T11:07:04.502Z,16.87
2023-07-03T11:09:47.943Z,16.72
2023-07-03T11:12:26.040Z,16.63
2023-07-03T11:15:10.202Z,16.53
2023-07-03T11:23:19.680Z,16.34
2023-07-03T11:28:34.802Z,16.45
2023-07-03T11:31:07.722Z,16.46
2023-07-03T11:36:08.643Z,16.50
2023-07-03T11:43:51.829Z,16.48
2023-07-03T11:46:24.910Z,16.75
2023-07-03T11:48:59.142Z,16.94
2023-07-03T11:51:37.885Z,17.15
2023-07-03T11:54:20.173Z,17.07
2023-07-03T11:57:03.753Z,16.96
2023-07-03T11:59:45.660Z,17.06
2023-07-03T12:02:52.079Z,17.23
2023-07-03T12:05:58.388Z,17.52
2023-07-03T12:08:55.983Z,18.00
2023-07-03T12:11:28.379Z,18.21
2023-07-03T12:13:58.460Z,18.34
2023-07-03T12:16:30.057Z,18.46
2023-07-03T12:19:13.209Z,18.61
2023-07-03T12:21:45.266Z,18.80
2023-07-03T12:24:30.114Z,19.06
2023-07-03T12:27:09.422Z,19.16
2023-07-03T12:29:47.316Z,19.09
2023-07-03T12:32:27.243Z,18.81
2023-07-03T12:35:05.131Z,18.57
2023-07-03T12:37:35.970Z,18.25
2023-07-03T12:40:08.969Z,18.00
2023-07-03T12:42:37.960Z,17.97
2023-07-03T12:45:21.227Z,18.09
2023-07-03T12:48:03.472Z,18.23
2023-07-03T12:50:32.354Z,18.34
2023-07-03T12:53:04.002Z,18.56
2023-07-03T12:55:35.662Z,18.96
2023-07-03T12:58:04.409Z,19.38
2023-07-03T13:00:37.619Z,19.55
2023-07-03T13:03:13.414Z,19.48
2023-07-03T13:05:42.570Z,19.60
2023-07-03T13:08:27.463Z,19.47
2023-07-03T13:11:00.606Z,19.39
2023-07-03T13:13:29.569Z,19.40
2023-07-03T13:16:00.875Z,19.36
2023-07-03T13:18:29.382Z,19.52
2023-07-03T13:21:03.634Z,19.58
2023-07-03T13:23:35.608Z,19.60
2023-07-03T13:26:08.650Z,19.67
2023-07-03T13:28:39.887Z,19.59
2023-07-03T13:31:14.911Z,19.63
2023-07-03T13:33:48.313Z,19.57
2023-07-03T13:36:27.699Z,19.37
2023-07-03T13:39:10.458Z,19.29
2023-07-03T13:41:40.631Z,19.32
2023-07-03T13:44:11.618Z,19.30
2023-07-03T13:46:43.161Z,19.17
2023-07-03T13:49:14.273Z,19.11
2023-07-03T13:51:44.655Z,19.27
2023-07-03T13:54:16.751Z,19.49
2023-07-03T13:56:47.455Z,19.63
2023-07-03T13:59:19.275Z,19.56
2023-07-03T14:01:55.934Z,19.36
2023-07-03T14:04:24.520Z,19.24
2023-07-03T14:06:57.587Z,19.15
2023-07-03T14:09:26.456Z,19.06
2023-07-03T14:11:55.163Z,19.07
2023-07-03T14:14:24.458Z,19.10
2023-07-03T14:16:54.587Z,19.10
2023-07-03T14:19:24.522Z,19.15
2023-07-03T14:21:53.320Z,19.20
2023-07-03T14:24:33.113Z,19.35
2023-07-03T14:27:04.198Z,19.58
2023-07-03T14:29:36.922Z,19.72
2023-07-03T14:32:09.514Z,19.75
2023-07-03T14:34:37.997Z,19.85
2023-07-03T14:37:06.838Z,19.91
2023-07-03T14:39:36.299Z,19.88
2023-07-03T14:42:05.169Z,19.86
2023-07-03T14:44:34.295Z,20.00
2023-07-03T14:47:04.069Z,20.06
2023-07-03T14:49:35.592Z,20.00
2023-07-03T14:52:04.301Z,19.80
2023-07-03T14:54:33.861Z,19.68
2023-07-03T14:57:02.505Z,19.47
2023-07-03T14:59:32.997Z,19.23
2023-07-03T15:02:01.295Z,18.94
2023-07-03T15:04:30.408Z,18.82
2023-07-03T15:07:02.876Z,18.77
2023-07-03T15:09:39.224Z,18.77
2023-07-03T15:12:37.234Z,18.84
2023-07-03T15:15:06.642Z,18.85
2023-07-03T15:17:42.404Z,18.81
2023-07-03T15:20:12.963Z,18.82
2023-07-03T15:22:44.737Z,18.84
2023-07-03T15:25:13.079Z,18.79
2023-07-03T15:27:42.680Z,18.59
2023-07-03T15:30:12.112Z,18.37
2023-07-03T15:32:42.178Z,18.16
2023-07-03T15:35:12.345Z,18.04
2023-07-03T15:37:54.705Z,17.98
2023-07-03T15:40:24.246Z,18.11
2023-07-03T15:42:57.251Z,18.24
2023-07-03T15:45:46.797Z,18.43
2023-07-03T15:48:25.636Z,18.68
2023-07-03T15:50:58.267Z,18.74
2023-07-03T15:53:30.500Z,18.71
2023-07-03T15:56:03.643Z,18.68
2023-07-03T15:58:35.364Z,18.64
2023-07-03T16:01:07.982Z,18.39
2023-07-03T16:03:38.286Z,18.21
2023-07-03T16:06:09.188Z,18.03
2023-07-03T16:08:44.404Z,17.88
2023-07-03T16:11:15.071Z,17.91
2023-07-03T16:13:47.461Z,17.78
2023-07-03T16:16:19.306Z,17.63
2023-07-03T16:18:55.257Z,17.62
2023-07-03T16:21:31.670Z,17.54
2023-07-03T16:24:05.551Z,17.44
2023-07-03T16:26:34.608Z,17.34
2023-07-03T16:29:15.813Z,17.22
2023-07-03T16:31:48.479Z,17.10
2023-07-03T16:34:19.371Z,16.96
2023-07-03T16:36:48.954Z,16.87
2023-07-03T16:39:24.488Z,16.88
2023-07-03T16:41:54.562Z,16.91
2023-07-03T16:44:26.141Z,16.98
2023-07-03T16:46:57.169Z,17.11
2023-07-03T16:49:26.141Z,17.07
2023-07-03T16:51:55.230Z,17.09
2023-07-03T16:54:28.037Z,17.04
2023-07-03T16:56:57.590Z,17.04
2023-07-03T16:59:32.102Z,17.07
2023-07-03T17:02:02.008Z,17.10
2023-07-03T17:04:32.360Z,17.10
2023-07-03T17:07:02.737Z,17.10
2023-07-03T17:09:35.764Z,17.15
2023-07-03T17:12:09.288Z,17.19
2023-07-03T17:14:37.918Z,17.48
2023-07-03T17:17:08.328Z,17.78
2023-07-03T17:19:38.666Z,17.76
2023-07-03T17:22:08.331Z,17.90
2023-07-03T17:24:40.328Z,17.99
2023-07-03T17:27:16.139Z,18.23
2023-07-03T17:29:46.726Z,18.84
2023-07-03T17:32:16.501Z,19.52
2023-07-03T17:34:44.921Z,19.93
2023-07-03T17:37:16.178Z,19.66
2023-07-03T17:39:46.728Z,19.25
2023-07-03T17:42:22.521Z,19.00
2023-07-03T17:44:54.259Z,18.71
2023-07-03T17:47:25.250Z,18.50
2023-07-03T17:49:54.920Z,18.42
2023-07-03T17:52:32.606Z,18.30
2023-07-03T17:55:02.595Z,18.16
2023-07-03T17:57:31.239Z,18.08
2023-07-03T18:00:02.867Z,18.01
2023-07-03T18:02:45.126Z,17.90
2023-07-03T18:05:16.433Z,17.72
2023-07-03T18:07:44.854Z,17.60
2023-07-03T18:10:15.560Z,17.47
2023-07-03T18:12:44.109Z,17.34
2023-07-03T18:15:16.510Z,17.20
2023-07-03T18:17:45.477Z,17.01
2023-07-03T18:20:36.872Z,16.84
2023-07-03T18:23:03.431Z,16.65
2023-07-03T18:25:40.680Z,16.56
2023-07-03T18:28:25.261Z,16.50
2023-07-03T18:31:03.973Z,16.55
2023-07-03T18:33:37.548Z,16.54
2023-07-03T18:36:08.852Z,16.51
2023-07-03T18:38:38.536Z,16.46
2023-07-03T18:41:09.964Z,16.42
2023-07-03T18:43:52.564Z,16.37
2023-07-03T18:46:21.324Z,16.34
2023-07-03T18:48:49.864Z,16.28
2023-07-03T18:51:22.905Z,16.31
2023-07-03T18:53:52.568Z,16.26
2023-07-03T18:56:23.041Z,16.21
2023-07-03T18:58:58.051Z,16.11
2023-07-03T19:01:30.288Z,16.00
2023-07-03T19:04:01.430Z,15.92
2023-07-03T19:06:34.598Z,15.79
2023-07-03T19:09:06.181Z,15.71
2023-07-03T19:11:43.714Z,15.67
2023-07-03T19:14:13.782Z,15.61
2023-07-03T19:16:42.457Z,15.53
2023-07-03T19:19:13.004Z,15.50
2023-07-03T19:21:44.858Z,15.42
2023-07-03T19:24:22.443Z,15.32
2023-07-03T19:26:52.357Z,15.28
2023-07-03T19:29:25.186Z,15.24
2023-07-03T19:32:07.255Z,15.20
2023-07-03T19:34:37.321Z,15.13
2023-07-03T19:37:06.395Z,15.09
2023-07-03T19:39:34.760Z,15.04
2023-07-03T19:42:04.765Z,14.99
2023-07-03T19:44:35.540Z,14.93
2023-07-03T19:47:08.256Z,14.87
2023-07-03T19:49:38.686Z,14.81
2023-07-03T19:52:09.351Z,14.74
2023-07-03T19:54:46.459Z,14.71
2023-07-03T19:57:18.677Z,14.66
2023-07-03T19:59:51.270Z,14.57
2023-07-03T20:02:21.324Z,14.57
2023-07-03T20:04:51.609Z,14.52
2023-07-03T20:07:21.901Z,14.48
2023-07-03T20:09:50.196Z,14.48
2023-07-03T20:12:19.929Z,14.44
2023-07-03T20:14:53.979Z,14.36
2023-07-03T20:17:22.884Z,14.34
2023-07-03T20:19:52.961Z,14.30
2023-07-03T20:22:21.482Z,14.27
2023-07-03T20:24:50.091Z,14.21
2023-07-03T20:27:21.328Z,14.19
2023-07-03T20:29:58.458Z,14.15
2023-07-03T20:32:27.141Z,14.16
2023-07-03T20:34:57.798Z,14.10
2023-07-03T20:37:27.002Z,14.14
2023-07-03T20:39:59.801Z,14.12
2023-07-03T20:42:37.716Z,14.14
2023-07-03T20:45:08.889Z,14.16
2023-07-03T20:47:37.427Z,14.12
2023-07-03T20:50:16.984Z,14.14
2023-07-03T20:52:59.169Z,14.04
2023-07-03T20:55:36.842Z,14.07
2023-07-03T20:58:06.587Z,14.05
2023-07-03T21:00:35.282Z,14.06
2023-07-03T21:03:05.965Z,14.07
2023-07-03T21:05:36.585Z,14.07
2023-07-03T21:08:06.960Z,14.05
2023-07-03T21:10:37.541Z,14.01
2023-07-03T21:13:07.740Z,13.96
2023-07-03T21:15:38.789Z,13.88
2023-07-03T21:18:11.457Z,13.80
2023-07-03T21:20:40.054Z,13.70
2023-07-03T21:23:13.933Z,13.69
2023-07-03T21:25:48.712Z,13.59
2023-07-03T21:28:37.930Z,13.55
2023-07-03T21:31:18.550Z,13.53
2023-07-03T21:33:49.648Z,13.46
2023-07-03T21:36:24.882Z,13.44
2023-07-03T21:38:55.374Z,13.40
2023-07-03T21:41:32.667Z,13.35
2023-07-03T21:44:11.254Z,13.33
2023-07-03T21:46:40.923Z,13.26
2023-07-03T21:49:14.129Z,13.27
2023-07-03T21:51:42.297Z,13.23
2023-07-03T21:54:10.720Z,13.19
2023-07-03T21:56:39.880Z,13.17
2023-07-03T21:59:13.664Z,13.14
2023-07-03T22:01:43.289Z,13.11
2023-07-03T22:04:14.336Z,13.11
2023-07-03T22:06:42.890Z,13.11
2023-07-03T22:09:12.399Z,13.08
2023-07-03T22:11:41.249Z,13.09
2023-07-03T22:14:11.362Z,13.07
2023-07-03T22:16:39.937Z,13.06
2023-07-03T22:19:09.272Z,13.05
2023-07-03T22:21:38.596Z,13.06
2023-07-03T22:24:07.202Z,13.05
2023-07-03T22:26:35.919Z,13.00
2023-07-03T22:29:04.254Z,13.00
2023-07-03T22:31:36.148Z,12.94
2023-07-03T22:34:04.894Z,12.88
2023-07-03T22:36:35.774Z,12.85
2023-07-03T22:39:06.122Z,12.85
2023-07-03T22:41:34.609Z,12.86
2023-07-03T22:44:04.237Z,12.84
2023-07-03T22:46:34.877Z,12.84
2023-07-03T22:49:15.666Z,12.82
2023-07-03T22:51:53.231Z,12.78
2023-07-03T22:54:23.112Z,12.76
2023-07-03T22:56:51.625Z,12.71
2023-07-03T22:59:20.609Z,12.67
2023-07-03T23:01:54.430Z,12.68
2023-07-03T23:04:23.501Z,12.61
2023-07-03T23:06:51.929Z,12.61
2023-07-03T23:09:20.050Z,12.56
2023-07-03T23:11:48.235Z,12.54
2023-07-03T23:14:18.915Z,12.53
2023-07-03T23:16:50.945Z,12.50
2023-07-03T23:19:19.640Z,12.48
2023-07-03T23:21:50.481Z,12.46
2023-07-03T23:24:20.123Z,12.37
2023-07-03T23:26:55.323Z,12.39
2023-07-03T23:29:24.262Z,12.38
2023-07-03T23:31:53.889Z,12.35
2023-07-03T23:34:23.570Z,12.33
2023-07-03T23:36:52.360Z,12.32
2023-07-03T23:39:21.455Z,12.29
2023-07-03T23:41:54.975Z,12.26
2023-07-03T23:44:25.485Z,12.25
2023-07-03T23:46:56.960Z,12.23
2023-07-03T23:49:26.614Z,12.21
2023-07-03T23:51:55.127Z,12.19
2023-07-03T23:54:24.896Z,12.17
2023-07-03T23:56:56.596Z,12.14
2023-07-03T23:59:25.305Z,12.11
